Westview, KY (40178)

5:12 PM CST on February 07, 2016 (GMT -0600)
Eveleigh Road | | Change Station
CLOSE
Current Station
Personal Weather Station
Location: Leitchfield, KY
Elevation: 670 ft
Nearby Weather Stations
Active Advisory: Special Statement

Elev 670 ft 37.58 °N, 86.34 °W | Updated 4 seconds ago

Clear
Clear
51.4 °F
Feels Like 51.4 °F
N
3.1
Wind Variable Wind from SW
Gusts 8.3 mph

Today
High -- | Low -- °F
--% Chance of Precip.
Yesterday
High -- | Low -- °F
Precip. -- in
Pressure 29.91 in
Visibility 10.0 miles
Clouds Clear
Dew Point 31 °F
Humidity 45%
Rainfall 0.00 in
Snow Depth Not available.
6:44 AM 5:15 PM
Waning Crescent, 1% visible
METAR KFTK 072258Z AUTO 20009KT 10SM CLR 10/M05 A2989 RMK AO2 SLP129 T01011055
Pressure 29.91 in
Visibility 10.0 miles
Clouds Clear
Dew Point 31 °F
Humidity 45%
Rainfall 0.00 in
Snow Depth Not available.
6:44 AM 5:15 PM
Waning Crescent, 1% visible
METAR KFTK 072258Z AUTO 20009KT 10SM CLR 10/M05 A2989 RMK AO2 SLP129 T01011055

10-Day Weather Forecast

Almanac

Astronomy

Feb. 07, 2016 Rise Set
Actual Time
Civil Twilight
Nautical Twilight
Astronomical Twilight
Moon
Length of Visible Light
Length of Day
Tomorrow will be .
, % of the Moon is Illuminated

Today's Extremes

State Highs State Lows

Community

WunderPhotos

Upload Photos

1,891,325 photos uploaded!

WunderBlog® & News

Nearby

Air Quality

  Air Quality AQ Index Pollutant
Not available.

Snow Depth

Station Depth Elevation

Earthquake Activity

City Distance Mag. Time & Date
Minimum magnitude displayed is 2.5.

Coastal Water Temperatures

Place Temperature

Stations

Nearby Weather Stations

Station Location Temp. Windchill Dew Point Humidity Wind Precip. Elev Updated Type
                   

Watches & Warnings

Special Statement
Issued: 3:05 PM CST Feb. 7, 2016 – National Weather Service

... Snow showers Monday afternoon through Tuesday evening...

After a morning mix of light rain and snow showers... scattered to
numerous moderate snow showers are expected at times from Monday
afternoon through at least Tuesday evening. As temperatures fall
below freezing... each passing shower will produce a dusting to a
light coating of snow capable of quickly covering surfaces. Travel
may be minorly impacted at times... especially untreated and side
streets. Overall 1 to 2 inches of snow is possible through Tuesday
evening. Use caution if planning to travel during this time.


Bjs